Terminal Aerodrome Forecast
Issued by NWS Shreveport, LA

Home | Current Version | Previous Version | Text Only | Print | Product List | Glossary On
Versions: 1 2 3 4 5 6 7 8 9 10 11 12 13 14 15 16 17 18 19 20 21 22
000
FTUS44 KSHV 290353 AAA
TAFTXK
TAF AMD
KTXK 290353Z 2904/2924 09003KT P6SM SKC WS010/16020KT
      TEMPO 2905/2909 00000KT 3SM BR
     FM290900 VRB04KT 4SM BR SKC
      TEMPO 2909/2913 1SM BR BKN005
     FM291300 25005KT P6SM BKN020
      TEMPO 2913/2915 4SM BR OVC010
     FM291800 32005KT P6SM OVC250=

USA.gov is the U.S. government's official web portal to all federal, state and local government web resources and services.